createdAt,value
2018-12-06T00:01:05.108Z,88.82
2018-12-06T00:04:10.032Z,89.51
2018-12-06T00:07:14.960Z,88.64
2018-12-06T00:10:19.998Z,89.41
2018-12-06T00:13:24.919Z,89.18
2018-12-06T00:16:29.826Z,87.77
2018-12-06T00:19:51.968Z,88.77
2018-12-06T00:22:56.870Z,88.47
2018-12-06T00:26:01.800Z,89.02
2018-12-06T00:29:06.959Z,88.56
2018-12-06T00:32:11.854Z,88.37
2018-12-06T00:35:16.788Z,87.29
2018-12-06T00:38:21.786Z,88.17
2018-12-06T00:41:26.696Z,88.57
2018-12-06T00:44:31.715Z,90.01
2018-12-06T00:47:36.615Z,90.85
2018-12-06T00:50:41.530Z,91.96
2018-12-06T00:53:46.435Z,92.30
2018-12-06T00:56:51.340Z,91.01
2018-12-06T00:59:56.268Z,90.16
2018-12-06T01:03:01.312Z,90.59
2018-12-06T01:06:06.231Z,91.21
2018-12-06T01:09:11.141Z,89.90
2018-12-06T01:12:16.386Z,90.26
2018-12-06T01:15:21.299Z,91.02
2018-12-06T01:18:26.191Z,91.15
2018-12-06T01:21:31.583Z,89.97
2018-12-06T01:24:36.596Z,89.46
2018-12-06T01:27:41.496Z,89.74
2018-12-06T01:30:46.438Z,88.92
2018-12-06T01:33:51.447Z,89.95
2018-12-06T01:36:56.335Z,89.11
2018-12-06T01:40:01.270Z,89.86
2018-12-06T01:43:06.173Z,88.98
2018-12-06T01:46:11.093Z,88.25
2018-12-06T01:49:16.003Z,87.37
2018-12-06T01:52:21.040Z,88.48
2018-12-06T01:55:25.951Z,88.08
2018-12-06T01:58:30.836Z,89.59
2018-12-06T02:01:35.859Z,89.70
2018-12-06T02:04:40.847Z,90.17
2018-12-06T02:07:45.703Z,90.16
2018-12-06T02:10:50.683Z,91.04
2018-12-06T02:13:55.556Z,91.01
2018-12-06T02:17:00.675Z,90.48
2018-12-06T02:20:05.871Z,89.51
2018-12-06T02:23:10.736Z,90.37
2018-12-06T02:26:15.601Z,91.17
2018-12-06T02:29:20.576Z,90.61
2018-12-06T02:32:25.507Z,90.05
2018-12-06T02:35:30.389Z,89.83
2018-12-06T02:38:35.457Z,89.46
2018-12-06T02:41:40.430Z,90.67
2018-12-06T02:44:45.405Z,90.14
2018-12-06T02:47:50.456Z,90.56
2018-12-06T02:50:55.362Z,89.27
2018-12-06T02:54:00.344Z,90.47
2018-12-06T02:57:05.457Z,89.61
2018-12-06T03:00:11.104Z,89.70
2018-12-06T03:03:15.947Z,89.59
2018-12-06T03:06:20.955Z,90.38
2018-12-06T03:09:25.815Z,89.18
2018-12-06T03:12:30.854Z,89.41
2018-12-06T03:15:35.857Z,90.45
2018-12-06T03:18:40.716Z,89.77
2018-12-06T03:21:45.573Z,89.26
2018-12-06T03:24:50.552Z,89.38
2018-12-06T03:27:55.420Z,90.09
2018-12-06T03:31:00.387Z,90.34
2018-12-06T03:34:05.514Z,90.49
2018-12-06T03:37:10.392Z,91.58
2018-12-06T03:40:15.375Z,91.61
2018-12-06T03:43:20.338Z,90.89
2018-12-06T03:46:25.416Z,91.86
2018-12-06T03:49:30.345Z,92.65
2018-12-06T03:52:35.308Z,94.45
2018-12-06T03:55:40.305Z,94.99
2018-12-06T03:58:45.162Z,95.41
2018-12-06T04:01:50.167Z,95.40
2018-12-06T04:04:55.014Z,94.91
2018-12-06T04:07:59.903Z,94.25
2018-12-06T04:11:04.772Z,94.10
2018-12-06T04:14:09.665Z,92.75
2018-12-06T04:17:14.520Z,91.27
2018-12-06T04:20:19.376Z,90.29
2018-12-06T04:23:24.378Z,90.03
2018-12-06T04:26:29.389Z,91.61
2018-12-06T04:29:34.397Z,91.89
2018-12-06T04:32:39.332Z,93.66
2018-12-06T04:35:44.223Z,93.67
2018-12-06T04:38:49.115Z,93.78
2018-12-06T04:41:54.030Z,92.01
2018-12-06T04:44:59.143Z,92.26
2018-12-06T04:48:04.328Z,92.55
2018-12-06T04:51:09.226Z,91.95
2018-12-06T04:54:14.591Z,92.81
2018-12-06T04:57:19.508Z,91.38
2018-12-06T05:00:24.428Z,91.16
2018-12-06T05:03:29.448Z,91.58
2018-12-06T05:06:34.374Z,91.54
2018-12-06T05:09:39.384Z,90.70
2018-12-06T05:12:44.308Z,90.64
2018-12-06T05:15:49.335Z,90.73
2018-12-06T05:18:54.293Z,90.58
2018-12-06T05:21:59.205Z,92.76
2018-12-06T05:25:04.912Z,93.45
2018-12-06T05:28:09.997Z,94.55
2018-12-06T05:31:15.199Z,95.42
2018-12-06T05:34:20.521Z,95.05
2018-12-06T05:37:25.668Z,94.45
2018-12-06T05:40:30.737Z,93.47
2018-12-06T05:43:36.025Z,93.81
2018-12-06T05:46:41.222Z,93.86
2018-12-06T05:49:46.379Z,92.68
2018-12-06T05:52:51.602Z,92.59
2018-12-06T05:55:56.635Z,93.01
2018-12-06T05:59:02.143Z,92.89
2018-12-06T06:02:07.645Z,91.60
2018-12-06T06:05:13.105Z,92.29
2018-12-06T06:08:18.240Z,92.27
2018-12-06T06:11:23.324Z,91.70
2018-12-06T06:14:28.577Z,91.30
2018-12-06T06:17:33.881Z,92.35
2018-12-06T06:20:39.486Z,92.01
2018-12-06T06:23:44.859Z,91.54
2018-12-06T06:26:49.980Z,92.33
2018-12-06T06:29:55.271Z,91.55
2018-12-06T06:33:02.687Z,92.10
2018-12-06T06:36:07.947Z,92.14
2018-12-06T06:39:13.096Z,91.28
2018-12-06T06:42:20.398Z,91.65
2018-12-06T06:45:25.690Z,90.61
2018-12-06T06:48:32.851Z,90.77
2018-12-06T06:51:38.296Z,91.33
2018-12-06T06:54:43.786Z,91.21
2018-12-06T06:57:49.087Z,90.68
2018-12-06T07:00:54.371Z,90.34
2018-12-06T07:04:00.164Z,90.83
2018-12-06T07:07:05.208Z,90.13
2018-12-06T07:10:10.834Z,90.49
2018-12-06T07:13:15.834Z,90.02
2018-12-06T07:16:23.053Z,89.42
2018-12-06T07:19:28.204Z,90.47
2018-12-06T07:22:33.812Z,90.17
2018-12-06T07:25:46.203Z,89.47
2018-12-06T07:28:48.655Z,90.09
2018-12-06T07:31:54.151Z,90.31
2018-12-06T07:35:02.381Z,91.06
2018-12-06T07:38:07.720Z,89.40
2018-12-06T07:41:12.799Z,90.10
2018-12-06T07:44:18.089Z,90.46
2018-12-06T07:47:24.184Z,89.40
2018-12-06T07:50:29.614Z,89.99
2018-12-06T07:53:35.036Z,89.90
2018-12-06T07:56:40.273Z,90.04
2018-12-06T07:59:45.646Z,89.90
2018-12-06T08:02:50.939Z,88.90
2018-12-06T08:05:58.329Z,89.54
2018-12-06T08:09:07.376Z,89.64
2018-12-06T08:12:12.858Z,90.06
2018-12-06T08:15:20.588Z,89.28
2018-12-06T08:18:26.059Z,88.81
2018-12-06T08:21:31.608Z,88.30
2018-12-06T08:24:36.971Z,89.11
2018-12-06T08:27:50.768Z,88.74
2018-12-06T08:30:55.925Z,87.57
2018-12-06T08:34:06.182Z,88.29
2018-12-06T08:37:08.783Z,87.69
2018-12-06T08:40:15.166Z,88.16
2018-12-06T08:43:20.514Z,87.01
2018-12-06T08:46:27.760Z,87.53
2018-12-06T08:49:32.985Z,87.54
2018-12-06T08:52:38.303Z,86.46
2018-12-06T08:55:44.943Z,86.36
2018-12-06T08:58:50.469Z,85.32
2018-12-06T09:01:55.877Z,83.83
2018-12-06T09:05:01.441Z,83.90
2018-12-06T09:08:07.149Z,83.56
2018-12-06T09:11:12.505Z,82.59
2018-12-06T09:14:17.824Z,84.23
2018-12-06T09:17:23.024Z,84.65
2018-12-06T09:20:28.717Z,84.02
2018-12-06T09:24:16.397Z,83.88
2018-12-06T09:27:23.776Z,83.92
2018-12-06T09:30:29.223Z,85.54
2018-12-06T09:33:44.739Z,86.17
2018-12-06T09:36:49.885Z,85.26
2018-12-06T09:39:59.195Z,85.74
2018-12-06T09:43:04.622Z,84.96
2018-12-06T09:46:09.740Z,85.54
2018-12-06T09:49:15.045Z,86.26
2018-12-06T09:52:20.331Z,86.13
2018-12-06T09:55:25.547Z,84.94
2018-12-06T09:58:30.857Z,84.42
2018-12-06T10:01:35.870Z,83.42
2018-12-06T10:04:41.147Z,84.28
2018-12-06T10:07:46.413Z,83.39
2018-12-06T10:10:51.531Z,82.39
2018-12-06T10:13:57.100Z,82.02
2018-12-06T10:17:04.265Z,80.41
2018-12-06T10:20:09.908Z,81.30
2018-12-06T10:23:15.126Z,80.20
2018-12-06T10:26:26.096Z,81.45
2018-12-06T10:29:36.088Z,79.90
2018-12-06T10:32:41.528Z,79.40
2018-12-06T10:35:46.757Z,78.77
2018-12-06T10:38:52.095Z,78.68
2018-12-06T10:41:57.116Z,77.97
2018-12-06T10:45:02.827Z,78.31
2018-12-06T10:48:08.103Z,78.07
2018-12-06T10:51:24.916Z,78.53
2018-12-06T10:54:31.305Z,79.01
2018-12-06T10:57:36.614Z,77.73
2018-12-06T11:00:48.169Z,75.91
2018-12-06T11:03:59.560Z,76.09
2018-12-06T11:07:06.315Z,75.66
2018-12-06T11:10:11.640Z,75.62
2018-12-06T11:13:19.007Z,73.75
2018-12-06T11:16:26.603Z,73.75
2018-12-06T11:19:32.347Z,74.27
2018-12-06T11:22:39.744Z,76.14
2018-12-06T11:25:47.342Z,74.56
2018-12-06T11:28:54.619Z,76.42
2018-12-06T11:32:02.067Z,75.62
2018-12-06T11:35:07.971Z,75.80
2018-12-06T11:38:13.625Z,77.67
2018-12-06T11:41:20.865Z,76.17
2018-12-06T11:44:26.179Z,75.45
2018-12-06T11:47:31.707Z,76.99
2018-12-06T11:50:39.212Z,76.27
2018-12-06T11:53:46.705Z,76.84
2018-12-06T11:56:52.227Z,75.27
2018-12-06T12:00:00.771Z,75.33
2018-12-06T12:03:06.399Z,76.13
2018-12-06T12:06:13.976Z,77.37
2018-12-06T12:09:20.183Z,75.88
2018-12-06T12:12:25.793Z,78.14
2018-12-06T12:15:35.256Z,78.11
2018-12-06T12:18:42.719Z,76.81
2018-12-06T12:21:48.160Z,77.02
2018-12-06T12:24:55.936Z,76.84
2018-12-06T12:28:02.863Z,77.28
2018-12-06T12:31:08.497Z,76.59
2018-12-06T12:34:15.651Z,76.67
2018-12-06T12:37:23.474Z,76.57
2018-12-06T12:40:37.576Z,76.48
2018-12-06T12:43:43.143Z,76.81
2018-12-06T12:46:48.482Z,77.44
2018-12-06T12:49:58.595Z,77.28
2018-12-06T12:53:06.235Z,77.26
2018-12-06T12:56:13.586Z,77.76
2018-12-06T12:59:20.599Z,78.39
2018-12-06T13:02:26.341Z,78.11
2018-12-06T13:05:33.419Z,77.83
2018-12-06T13:08:40.572Z,77.57
2018-12-06T13:11:47.720Z,78.31
2018-12-06T13:14:54.775Z,76.83
2018-12-06T13:18:04.176Z,77.33
2018-12-06T13:21:09.482Z,77.16
2018-12-06T13:24:15.267Z,76.98
2018-12-06T13:27:21.476Z,75.41
2018-12-06T13:30:27.439Z,75.73
2018-12-06T13:33:34.987Z,76.36
2018-12-06T13:36:44.763Z,78.33
2018-12-06T13:39:50.663Z,78.20
2018-12-06T13:42:58.309Z,79.61
2018-12-06T13:46:04.918Z,78.50
2018-12-06T13:49:11.488Z,77.96
2018-12-06T13:52:18.636Z,79.34
2018-12-06T13:55:26.408Z,79.89
2018-12-06T13:58:36.233Z,79.56
2018-12-06T14:01:42.914Z,80.55
2018-12-06T14:04:48.615Z,82.06
2018-12-06T14:07:57.601Z,81.64
2018-12-06T14:11:03.385Z,81.85
2018-12-06T14:14:10.741Z,80.99
2018-12-06T14:17:18.019Z,81.98
2018-12-06T14:20:24.184Z,82.24
2018-12-06T14:23:30.603Z,83.10
2018-12-06T14:26:38.099Z,82.29
2018-12-06T14:29:43.807Z,81.67
2018-12-06T14:32:49.399Z,81.26
2018-12-06T14:35:56.855Z,81.43
2018-12-06T14:39:05.992Z,82.02
2018-12-06T14:42:11.713Z,83.18
2018-12-06T14:45:18.860Z,82.97
2018-12-06T14:48:26.043Z,81.70
2018-12-06T14:51:35.059Z,81.49
2018-12-06T14:54:43.015Z,81.72
2018-12-06T15:01:19.323Z,82.34
2018-12-06T15:04:26.586Z,82.92
2018-12-06T15:07:32.020Z,81.82
2018-12-06T15:10:39.718Z,82.98
2018-12-06T15:13:45.519Z,82.96
2018-12-06T15:16:53.009Z,83.37
2018-12-06T15:19:58.530Z,83.15
2018-12-06T15:23:05.191Z,84.04
2018-12-06T15:26:12.587Z,84.86
2018-12-06T15:29:20.032Z,84.68
2018-12-06T15:32:25.671Z,84.29
2018-12-06T15:35:33.299Z,85.05
2018-12-06T15:38:40.808Z,84.14
2018-12-06T15:41:47.011Z,84.44
2018-12-06T15:44:53.109Z,84.60
2018-12-06T15:48:00.315Z,85.59
2018-12-06T15:51:05.870Z,86.16
2018-12-06T15:54:11.275Z,87.47
2018-12-06T15:57:16.600Z,87.49
2018-12-06T16:00:22.039Z,87.45
2018-12-06T16:03:27.300Z,86.45
2018-12-06T16:06:32.587Z,87.15
2018-12-06T16:09:38.048Z,85.94
2018-12-06T16:12:43.594Z,87.32
2018-12-06T16:15:51.006Z,87.41
2018-12-06T16:19:02.965Z,86.66
2018-12-06T16:22:14.735Z,87.92
2018-12-06T16:25:22.026Z,87.92
2018-12-06T16:28:29.825Z,88.09
2018-12-06T16:31:35.426Z,87.67
2018-12-06T16:34:40.784Z,87.14
2018-12-06T16:37:48.004Z,86.85
2018-12-06T16:40:55.395Z,87.75
2018-12-06T16:44:04.618Z,86.91
2018-12-06T16:47:09.577Z,87.08
2018-12-06T16:50:14.508Z,85.86
2018-12-06T16:53:19.583Z,87.16
2018-12-06T16:56:24.587Z,86.85
2018-12-06T16:59:29.553Z,86.89
2018-12-06T17:02:34.551Z,86.91
2018-12-06T17:05:39.532Z,86.25
2018-12-06T17:08:44.455Z,87.27
2018-12-06T17:11:49.552Z,87.44
2018-12-06T17:14:54.487Z,87.73
2018-12-06T17:17:59.547Z,87.95
2018-12-06T17:21:05.047Z,86.61
2018-12-06T17:24:10.166Z,87.18
2018-12-06T17:27:15.201Z,87.23
2018-12-06T17:30:20.387Z,85.90
2018-12-06T17:33:25.408Z,86.66
2018-12-06T17:36:30.471Z,86.67
2018-12-06T17:39:35.436Z,86.17
2018-12-06T17:42:40.441Z,87.19
2018-12-06T17:45:45.631Z,86.21
2018-12-06T17:48:50.728Z,86.91
2018-12-06T17:51:55.726Z,86.46
2018-12-06T17:55:00.740Z,86.90
2018-12-06T17:58:05.643Z,87.18
2018-12-06T18:01:10.726Z,87.91
2018-12-06T18:04:15.707Z,86.19
2018-12-06T18:07:20.892Z,87.18
2018-12-06T18:10:26.179Z,87.01
2018-12-06T18:13:31.182Z,86.88
2018-12-06T18:16:36.613Z,86.49
2018-12-06T18:19:41.703Z,86.09
2018-12-06T18:22:46.767Z,86.15
2018-12-06T18:25:52.208Z,87.09
2018-12-06T18:28:57.387Z,86.39
2018-12-06T18:32:04.363Z,86.66
2018-12-06T18:35:09.878Z,85.58
2018-12-06T18:38:16.080Z,85.74
2018-12-06T18:41:21.392Z,86.08
2018-12-06T18:44:26.529Z,87.63
2018-12-06T18:47:31.681Z,88.32
2018-12-06T18:50:36.712Z,88.41
2018-12-06T18:53:42.263Z,88.06
2018-12-06T18:56:47.281Z,87.13
2018-12-06T18:59:52.342Z,87.27
2018-12-06T19:02:57.511Z,87.33
2018-12-06T19:06:02.855Z,87.57
2018-12-06T19:09:07.905Z,87.33
2018-12-06T19:12:12.905Z,88.27
2018-12-06T19:15:17.944Z,87.02
2018-12-06T19:18:23.035Z,87.82
2018-12-06T19:21:28.191Z,87.33
2018-12-06T19:24:33.132Z,86.29
2018-12-06T19:27:38.215Z,86.25
2018-12-06T19:30:43.368Z,87.09
2018-12-06T19:33:48.460Z,86.17
2018-12-06T19:36:53.502Z,86.63
2018-12-06T19:43:48.297Z,85.94
2018-12-06T19:47:53.315Z,86.47
2018-12-06T19:51:58.313Z,86.51
2018-12-06T19:56:04.028Z,87.14
2018-12-06T20:00:09.259Z,86.50
2018-12-06T20:04:14.308Z,87.17
2018-12-06T20:08:19.411Z,87.32
2018-12-06T20:12:24.391Z,87.28
2018-12-06T20:16:29.548Z,87.14
2018-12-06T20:20:34.531Z,87.30
2018-12-06T20:24:55.132Z,86.95
2018-12-06T20:27:00.268Z,87.29
2018-12-06T20:29:05.372Z,87.87
2018-12-06T20:31:10.631Z,87.33
2018-12-06T20:33:15.756Z,86.87
2018-12-06T20:35:20.804Z,87.60
2018-12-06T20:37:26.010Z,86.44
2018-12-06T20:44:43.723Z,87.56
2018-12-06T20:50:09.231Z,87.61
2018-12-06T20:55:24.285Z,86.71
2018-12-06T21:00:39.400Z,86.21
2018-12-06T21:05:54.660Z,86.86
2018-12-06T21:11:09.847Z,87.61
2018-12-06T21:16:25.486Z,87.95
2018-12-06T21:21:40.523Z,88.65
2018-12-06T21:26:55.676Z,87.90
2018-12-06T21:32:10.625Z,88.05
2018-12-06T21:37:25.678Z,86.10
2018-12-06T21:42:40.608Z,86.21
2018-12-06T21:47:55.735Z,85.94
2018-12-06T21:53:10.837Z,85.83
2018-12-06T21:58:25.822Z,86.87
2018-12-06T22:03:40.809Z,86.24
2018-12-06T22:08:55.756Z,86.15
2018-12-06T22:14:10.694Z,87.58
2018-12-06T22:19:25.635Z,85.96
2018-12-06T22:24:40.643Z,86.70
2018-12-06T22:29:55.614Z,85.46
2018-12-06T22:35:10.620Z,85.54
2018-12-06T22:40:25.577Z,85.01
2018-12-06T22:45:57.772Z,86.03
2018-12-06T23:06:23.739Z,86.63
2018-12-06T23:11:38.721Z,86.46
2018-12-06T23:16:53.991Z,86.63
2018-12-06T23:22:08.984Z,87.12
2018-12-06T23:27:23.960Z,86.48
2018-12-06T23:32:38.988Z,86.96
2018-12-06T23:37:54.119Z,85.90
2018-12-06T23:43:39.898Z,85.87
2018-12-06T23:48:54.801Z,86.02
2018-12-06T23:54:09.709Z,85.55
2018-12-06T23:59:24.619Z,86.21
